Ride Results

Spring Mountain (20-04-1997)
Ride distance: 80.0 km

Outcomes - Spring Mountain (20-04-1997)
Division No. of Entries Retired / DNE Completed Withdrawn Ineligible V/O Percentage Completed
HW 15 - 11 - - 4 73.33%
MW 32 - 22 2 - 8 68.75%
LW 7 - 4 1 - 2 57.14%
JN 7 - 5 - - 2 71.43%
Totals 61 - 42 3 - 16 68.85%
Results - Spring Mountain (20-04-1997)
No. Rider Horse Place Time Leg Speeds Total
Km/Hr
H/R bpm
Heavyweight
25 Jeff Lazic Janika 1 (BC) 5:30:00 15.4, 13.7 14.55 35, 51, 57 (Avg:54)
20 Craig Renner Sahateyn Gai S'jahl 2 5:52:00 12.6, 14.8 13.64 35, 44, 42 (Avg:43)
26 Chris Pollitt Avante 3 5:59:00 12.1, 14.9 13.37 31, 39, 48 (Avg:43)
52 Paul Fitzgerald Castlebar Talisman 4 7:17:00 10.4, 11.5 10.98 33, 45, 55 (Avg:50)
6 David Somerville Maf-Ue Czar 4 7:17:00 10.4, 11.5 10.98 38, 43, 49 (Avg:46)
38 Noel Weismann Matta Mia Rasul 6 7:29:00 10.6, 10.7 10.69 33, 44, 42 (Avg:43)
53 Andy Hansen Akina Nessah 7 7:35:00 10.6, 10.4 10.55 36, 42, 48 (Avg:45)
46 Jim Price Ripahl 7 7:35:00 10.9, 10.2 10.55 32, 39, 53 (Avg:46)
4 Tony Mcguire Billy The Kid 9 7:46:00 11.0, 9.6 10.30 36, 44, 50 (Avg:47)
49 William Howlett Woongabeena Tadgh 10 8:23:00 9.2, 9.8 9.54 31, 39, 39 (Avg:39)
50 Gavin Clarke Puck 11 8:34:00 9.3, 9.3 9.34 26, 49, 46 (Avg:47)
36 Barrie Rhodes Jabulani Metabolics L2 0:00:00 13.1, 13.7 - 34, 44, 55 (Avg:49)
16 Bill Standfield Joseph Heart Rate L2 0:00:00 11.5, 11.8 - 33, 49, 65 (Avg:57)
8 David Caldwell Sonval Mukhtar Heart Rate L1 0:00:00 12.9 - 39, 58 (Avg:58)
28 Ron Haigh Al Meraine Rici Heart Rate L1 0:00:00 15.9 - 29, 63 (Avg:63)
Middleweight
41 Derek Armitage Barbaree Sioll 1 4:39:00 15.7, 18.8 17.20 36, 45, 56 (Avg:50)
21 Olaf Lochtenberg Bolaro Yasmin 1 (BC) 4:39:00 16.5, 17.9 17.20 26, 42, 50 (Avg:46)
12 Brook Sample Sharahd Cavalier 3 5:09:00 12.6, 20.1 15.53 31, 39, 44 (Avg:41)
13 Chris Forrester Mandala Driftwood 4 5:20:00 15.7, 14.2 15.00 34, 52, 59 (Avg:55)
57 Barry Hatton Yul-arai Shariya 5 5:28:00 13.4, 15.9 14.63 32, 38, 43 (Avg:40)
10 Elsie Nancarrow Dealbata Three Fingers 6 5:52:00 12.9, 14.3 13.64 34, 44, 52 (Avg:48)
14 Ray Vlad Taj Aheen 6 5:52:00 13.0, 14.2 13.64 39, 43, 55 (Avg:49)
35 Sue Rhodes Pinnacle Park Nishka 8 6:01:00 13.1, 13.4 13.30 39, 46, 54 (Avg:50)
29 Erika Woodland Anstley Houri 9 6:17:00 12.1, 13.4 12.73 36, 46, 47 (Avg:46)
37 Fred Henry Morgan 10 6:20:00 12.1, 13.1 12.63 28, 39, 55 (Avg:47)
34 Bruce Everson Storm Boy 11 6:27:00 12.9, 11.8 12.40 35, 48, 52 (Avg:50)
23 Teena Cashin Liscannor Coppelia 12 6:34:00 12.3, 12.0 12.18 50, 38, 42 (Avg:40)
11 Jim Wells Ausden Silver Sparkle 13 6:55:00 12.4, 10.8 11.57 33, 45, 47 (Avg:46)
7 Erica Williams Sharahd Friday 14 7:18:00 11.5, 10.3 10.96 28, 49, 52 (Avg:50)
1 Jason Haigh Camalot Ambassador 15 7:25:00 10.2, 11.4 10.79 33, 41, 53 (Avg:47)
32 Jaime Mansbridge Arabian Park Nadra 15 7:25:00 10.8, 10.7 10.79 37, 44, 56 (Avg:50)
44 Kathleen Roberts Shayperil Golden Lady 15 7:25:00 10.2, 11.4 10.79 35, 36, 40 (Avg:38)
3 Jan Hartley Sharahd Fantasy 18 8:06:00 9.1, 10.6 9.88 37, 42, 51 (Avg:46)
39 Wendy Smith Craigdarroch Pandillach 19 8:14:00 9.9, 9.4 9.72 30, 44, 54 (Avg:49)
55 Megan Law Doralmir Park Razana 20 8:35:00 9.7, 8.9 9.32 38, 50, 53 (Avg:51)
19 Yvonne Dawson Dolly 21 8:41:00 9.3, 9.0 9.21 33, 42, 58 (Avg:50)
54 Glenn Carter Yenvale Hamalete 22 8:46:00 8.7, 9.5 9.13 39, 47, 55 (Avg:51)
17 Garry Fry Marja Muszir Heart Rate L2 0:00:00 11.7, 9.5 - 34, 54, 61 (Avg:57)
22 Bruce Overton Charabal Doyen Lame L2 0:00:00 15.9, 19.8 - 33, 37, 46 (Avg:41)
42 Martin Parker Tracee Two Heart Rate L2 0:00:00 14.2, 23.3 - 28, 43, 61 (Avg:52)
27 Peter Pike Charabal Dashah Heart Rate L2 0:00:00 10.8, 14.1 - 41, 49, 64 (Avg:56)
30 Sally Summers Kahsahn Heart Rate L2 0:00:00 10.3, 11.5 - 37, 49, 68 (Avg:58)
15 Peter Williams Elwell Silver Spinx Heart Rate L2 0:00:00 13.4, 15.7 - 33, 47, 71 (Avg:59)
18 Scott Hill Queshahna Widthdrawn L1 0:00:00 - - 32, 41 (Avg:41)
51 Damien Keys Kynnum Park Arb Heart Rate L1 0:00:00 15.4 - 33, 57 (Avg:57)
59 Rachael Keys Ramalea Passion Lame L1 0:00:00 13.1 - 29, 38 (Avg:38)
31 Marg Lundberg Nazooli G.a. Widthdrawn L1 0:00:00 - - 39, 49 (Avg:49)
Lightweight
56 Coralie Frischkorn Cedardell Cleo 1 (BC) 5:57:00 12.1, 15.0 13.45 37, 46, 56 (Avg:51)
58 Sue Verlemans Manana Magician 2 7:58:00 9.9, 10.1 10.04 32, 39, 49 (Avg:44)
2 Daisuke Yasunaga Sharahd Roman 3 8:06:00 9.1, 10.6 9.88 32, 47, 42 (Avg:44)
48 Kylie Roberts Allira Park Darkside of the Moon 4 8:34:00 9.3, 9.3 9.34 30, 45, 59 (Avg:52)
24 Jenny Noffke Craigdarroch Benbecula Heart Rate L2 0:00:00 11.0, 11.0 - 35, 41, 66 (Avg:53)
33 Nicole Urquhart Glen Caron Adrah Heart Rate L2 0:00:00 12.9, 13.6 - 31, 45, 70 (Avg:57)
5 Sallyanne Mckerrow Rebel Widthdrawn L1 0:00:00 - - 36, 54 (Avg:54)
Junior
40 Adrian Brickley Rokeby Joel 1 (BC) 5:16:00 15.7, 14.6 15.19 33, 44, 45 (Avg:44)
61 Alicia Henry Charlene 2 6:20:00 12.1, 13.1 12.63 33, 47, 47 (Avg:47)
9 Richard Caldwell Shaiyana 3 6:27:00 12.9, 11.8 12.40 33, 42, 51 (Avg:46)
60 Rochelle Williams Dallas 4 8:35:00 9.7, 8.9 9.32 39, 51, 49 (Avg:50)
43 Katie-Maree Cullen Fern Valley Fleur De Rose 5 10:22:00 5.3, 14.1 7.72 45, 50, 55 (Avg:52)
45 David Urquhart Allira Park Star Cavalier Lame L2 0:00:00 10.8, 14.1 - 36, 42, 50 (Avg:46)
47 Shyreen Russell Cheekie Lame L1 0:00:00 9.3 - 37, 42 (Avg:42)